Time;durP1;ratioP1;P1;durP2;ratioP2;P2;SDS_P1;SDS_P2;PMS_P1;PMS_P2;Temp;Humidity;BMP_temperature;BMP_pressure;BME280_temperature;BME280_humidity;BME280_pressure;Samples;Min_cycle;Max_cycle;Signal;HPM_P1;HPM_P2
2021/07/12 00:01:28;;;;;;;3.33;2.77;;;;;;;;;;5115030;28;20563;-77
2021/07/12 00:03:55;;;;;;;3.57;3.20;;;;;;;;;;5115221;28;20982;-77
2021/07/12 00:06:24;;;;;;;3.20;2.90;;;;;;;;;;5114974;28;20447;-74
2021/07/12 00:08:51;;;;;;;4.20;3.80;;;;;;;;;;5115091;28;20806;-78
2021/07/12 00:11:18;;;;;;;4.10;3.17;;;;;;;;;;5115117;28;20446;-78
2021/07/12 00:13:46;;;;;;;3.87;3.57;;;;;;;;;;5110329;28;20534;-77
2021/07/12 00:16:13;;;;;;;3.50;3.03;;;;;;;;;;5114459;28;20504;-76
2021/07/12 00:18:41;;;;;;;4.17;3.23;;;;;;;;;;5113800;28;20440;-79
2021/07/12 00:21:09;;;;;;;3.60;3.30;;;;;;;;;;5098705;28;20445;-80
2021/07/12 00:23:37;;;;;;;6.50;3.63;;;;;;;;;;5094187;28;20447;-79
2021/07/12 00:26:04;;;;;;;6.70;3.17;;;;;;;;;;5109923;28;20447;-78
2021/07/12 00:28:31;;;;;;;3.97;3.67;;;;;;;;;;5114299;28;20450;-79
2021/07/12 00:30:58;;;;;;;4.20;3.43;;;;;;;;;;5114393;28;20446;-80
2021/07/12 00:33:26;;;;;;;4.80;2.83;;;;;;;;;;5114896;28;20439;-79
2021/07/12 00:35:53;;;;;;;3.27;2.97;;;;;;;;;;5113921;28;20472;-77
2021/07/12 00:38:20;;;;;;;3.60;2.97;;;;;;;;;;5105349;28;20832;-78
2021/07/12 00:40:48;;;;;;;3.40;3.10;;;;;;;;;;5107468;28;20443;-79
2021/07/12 00:43:16;;;;;;;5.53;3.90;;;;;;;;;;5109318;28;21101;-80
2021/07/12 00:45:43;;;;;;;3.87;3.37;;;;;;;;;;5113285;28;20435;-78
2021/07/12 00:48:10;;;;;;;3.80;3.13;;;;;;;;;;5113649;28;20458;-78
2021/07/12 00:50:38;;;;;;;3.37;3.07;;;;;;;;;;5109798;28;20467;-79
2021/07/12 00:53:06;;;;;;;3.30;2.93;;;;;;;;;;5113293;28;20952;-77
2021/07/12 00:55:35;;;;;;;3.90;3.50;;;;;;;;;;5112616;28;21026;-77
2021/07/12 00:58:06;;;;;;;4.13;3.40;;;;;;;;;;5113636;28;20449;-77
2021/07/12 01:00:33;;;;;;;3.37;3.07;;;;;;;;;;5112991;28;20448;-77
2021/07/12 01:03:00;;;;;;;3.50;3.20;;;;;;;;;;5113528;28;20456;-78
2021/07/12 01:05:29;;;;;;;5.97;3.63;;;;;;;;;;5112729;28;20562;-79
2021/07/12 01:07:56;;;;;;;4.40;3.17;;;;;;;;;;5112348;28;20475;-78
2021/07/12 01:10:24;;;;;;;4.80;3.03;;;;;;;;;;5112653;28;20959;-80
2021/07/12 01:13:12;;;;;;;3.80;3.50;;;;;;;;;;5112873;28;20547;-79
2021/07/12 01:15:47;;;;;;;3.30;3.00;;;;;;;;;;5106185;28;21074;-78
2021/07/12 01:18:21;;;;;;;4.77;3.60;;;;;;;;;;5113349;28;20451;-75
2021/07/12 01:21:09;;;;;;;3.93;2.87;;;;;;;;;;5113113;28;20809;-80
2021/07/12 01:23:55;;;;;;;4.67;3.57;;;;;;;;;;5112877;28;20448;-79
2021/07/12 01:26:39;;;;;;;4.10;2.80;;;;;;;;;;5112861;28;21011;-80
2021/07/12 01:29:14;;;;;;;3.37;3.07;;;;;;;;;;5113183;28;20458;-80
2021/07/12 01:32:05;;;;;;;3.67;3.23;;;;;;;;;;5112196;28;20443;-79
2021/07/12 01:34:37;;;;;;;4.40;3.00;;;;;;;;;;5112594;28;20446;-80
2021/07/12 01:37:08;;;;;;;3.07;2.80;;;;;;;;;;5112410;28;21134;-79
2021/07/12 01:39:38;;;;;;;4.97;3.80;;;;;;;;;;5112448;28;20531;-80
2021/07/12 01:42:07;;;;;;;5.20;3.63;;;;;;;;;;5113485;28;20440;-79
2021/07/12 01:44:39;;;;;;;6.53;3.70;;;;;;;;;;5112559;28;20454;-77
2021/07/12 01:47:07;;;;;;;4.13;3.73;;;;;;;;;;5113772;28;20983;-78
2021/07/12 01:49:38;;;;;;;4.23;3.20;;;;;;;;;;5111964;28;20443;-76
2021/07/12 01:52:08;;;;;;;5.33;3.23;;;;;;;;;;5112836;28;20446;-78
2021/07/12 01:54:37;;;;;;;4.00;3.20;;;;;;;;;;5110210;28;20514;-80
2021/07/12 01:57:07;;;;;;;4.03;3.17;;;;;;;;;;5112791;28;20475;-80
2021/07/12 01:59:36;;;;;;;3.23;2.93;;;;;;;;;;5112815;28;20447;-78
2021/07/12 02:02:06;;;;;;;3.77;3.37;;;;;;;;;;5117113;28;20505;-78
2021/07/12 02:04:33;;;;;;;4.43;3.20;;;;;;;;;;5115005;28;20523;-78
2021/07/12 02:07:02;;;;;;;3.60;2.80;;;;;;;;;;5115360;28;20454;-78
2021/07/12 02:09:30;;;;;;;6.10;3.53;;;;;;;;;;5112566;28;20444;-78
2021/07/12 02:11:59;;;;;;;5.17;3.70;;;;;;;;;;5112104;28;20943;-78
2021/07/12 02:14:26;;;;;;;4.73;3.43;;;;;;;;;;5111501;28;20446;-74
2021/07/12 02:16:54;;;;;;;3.53;2.40;;;;;;;;;;5111775;28;20796;-76
2021/07/12 02:19:22;;;;;;;3.90;3.43;;;;;;;;;;5112229;28;20554;-79
2021/07/12 02:21:50;;;;;;;6.90;4.10;;;;;;;;;;5110984;28;20808;-78
2021/07/12 02:24:20;;;;;;;3.53;3.20;;;;;;;;;;5111689;28;20531;-78
2021/07/12 02:26:48;;;;;;;3.77;3.37;;;;;;;;;;5111465;28;20546;-79
2021/07/12 02:29:16;;;;;;;5.10;3.57;;;;;;;;;;5111522;28;20444;-79
2021/07/12 02:31:44;;;;;;;3.13;2.83;;;;;;;;;;5110671;28;20451;-78
2021/07/12 02:34:11;;;;;;;3.97;3.10;;;;;;;;;;5111769;28;20787;-79
2021/07/12 02:36:38;;;;;;;4.07;2.57;;;;;;;;;;5110779;28;20986;-79
2021/07/12 02:39:08;;;;;;;6.57;3.40;;;;;;;;;;5111696;28;20818;-78
2021/07/12 02:41:38;;;;;;;3.13;2.80;;;;;;;;;;5110990;28;20545;-77
2021/07/12 02:44:06;;;;;;;6.43;4.03;;;;;;;;;;5111168;28;20446;-78
2021/07/12 02:46:33;;;;;;;4.53;3.40;;;;;;;;;;5111025;28;20802;-79
2021/07/12 02:49:01;;;;;;;3.10;2.80;;;;;;;;;;5111757;28;20444;-79
2021/07/12 02:51:30;;;;;;;4.17;2.90;;;;;;;;;;5110811;28;20497;-76
2021/07/12 02:54:00;;;;;;;4.87;3.20;;;;;;;;;;5111385;28;21206;-78
2021/07/12 02:56:27;;;;;;;5.60;3.90;;;;;;;;;;5110729;28;20940;-75
2021/07/12 02:58:55;;;;;;;3.60;3.07;;;;;;;;;;5111373;28;20440;-76
2021/07/12 03:01:23;;;;;;;4.23;3.10;;;;;;;;;;5111437;28;20448;-78
2021/07/12 03:03:50;;;;;;;4.17;3.00;;;;;;;;;;5111443;28;20471;-78
2021/07/12 03:06:18;;;;;;;3.43;3.07;;;;;;;;;;5107066;28;20460;-78
2021/07/12 03:08:50;;;;;;;4.30;3.27;;;;;;;;;;5099265;28;20440;-79
2021/07/12 03:11:18;;;;;;;4.03;3.13;;;;;;;;;;5107928;28;20462;-78
2021/07/12 03:13:50;;;;;;;5.80;3.77;;;;;;;;;;5110747;28;20439;-78
2021/07/12 03:16:19;;;;;;;6.13;3.17;;;;;;;;;;5111376;28;20491;-77
2021/07/12 03:18:47;;;;;;;4.50;3.80;;;;;;;;;;5111026;28;20451;-78
2021/07/12 03:21:15;;;;;;;3.40;3.10;;;;;;;;;;5110778;28;20817;-77
2021/07/12 03:23:43;;;;;;;7.00;3.57;;;;;;;;;;5110837;28;20969;-78
2021/07/12 03:26:11;;;;;;;3.03;2.73;;;;;;;;;;5110875;28;20777;-77
2021/07/12 03:28:39;;;;;;;3.40;3.10;;;;;;;;;;5110974;28;20945;-77
2021/07/12 03:31:08;;;;;;;4.73;3.30;;;;;;;;;;5110991;28;20486;-77
2021/07/12 03:33:37;;;;;;;4.87;3.47;;;;;;;;;;5112254;28;20436;-77
2021/07/12 03:36:05;;;;;;;4.47;4.07;;;;;;;;;;5114199;28;20843;-77
2021/07/12 03:38:33;;;;;;;6.00;3.73;;;;;;;;;;5114973;28;20927;-77
2021/07/12 03:41:01;;;;;;;3.57;3.10;;;;;;;;;;5115496;28;20473;-77
2021/07/12 03:43:28;;;;;;;3.30;3.00;;;;;;;;;;5114789;28;20447;-77
2021/07/12 03:45:56;;;;;;;5.40;3.70;;;;;;;;;;5115374;28;20450;-78
2021/07/12 03:48:38;;;;;;;3.93;3.53;;;;;;;;;;5116658;28;20427;-78
2021/07/12 03:51:08;;;;;;;3.43;3.13;;;;;;;;;;5112241;28;20451;-79
2021/07/12 03:53:35;;;;;;;4.43;3.70;;;;;;;;;;5114881;28;20454;-79
2021/07/12 03:56:02;;;;;;;4.43;4.03;;;;;;;;;;5116189;28;20481;-79
2021/07/12 03:58:30;;;;;;;3.87;3.30;;;;;;;;;;5115524;28;20526;-78
2021/07/12 04:00:57;;;;;;;4.70;4.30;;;;;;;;;;5110727;28;20485;-78
2021/07/12 04:03:24;;;;;;;4.57;3.00;;;;;;;;;;5114153;28;20946;-77
2021/07/12 04:05:51;;;;;;;6.17;3.60;;;;;;;;;;5113637;28;20536;-77
2021/07/12 04:08:20;;;;;;;3.60;3.10;;;;;;;;;;5114749;28;20446;-77
2021/07/12 04:10:47;;;;;;;6.00;3.43;;;;;;;;;;5111042;28;20440;-76
2021/07/12 04:13:15;;;;;;;5.13;3.03;;;;;;;;;;5113747;28;20880;-77
2021/07/12 04:15:43;;;;;;;3.50;3.20;;;;;;;;;;5113884;28;20923;-77
2021/07/12 04:18:10;;;;;;;7.43;3.50;;;;;;;;;;5102062;28;20500;-77
2021/07/12 04:20:41;;;;;;;4.23;2.97;;;;;;;;;;5113785;28;20440;-76
2021/07/12 04:23:08;;;;;;;4.20;3.27;;;;;;;;;;5112465;28;20463;-76
2021/07/12 04:25:37;;;;;;;5.30;3.37;;;;;;;;;;5112728;28;20522;-75
2021/07/12 04:28:04;;;;;;;6.47;3.57;;;;;;;;;;5100704;28;20527;-77
2021/07/12 04:30:32;;;;;;;4.40;3.90;;;;;;;;;;5114512;28;20449;-73
2021/07/12 04:32:59;;;;;;;4.00;3.33;;;;;;;;;;5109392;28;20477;-75
2021/07/12 04:35:26;;;;;;;7.37;3.30;;;;;;;;;;5114154;28;20936;-74
2021/07/12 04:37:53;;;;;;;3.30;2.90;;;;;;;;;;5113097;28;20471;-74
2021/07/12 04:40:21;;;;;;;7.33;3.60;;;;;;;;;;5114500;28;20798;-73
2021/07/12 04:42:49;;;;;;;4.40;3.40;;;;;;;;;;5113721;28;20516;-76
2021/07/12 04:45:17;;;;;;;9.07;3.93;;;;;;;;;;5113351;28;20436;-75
2021/07/12 04:47:44;;;;;;;6.30;3.40;;;;;;;;;;5113269;28;20451;-75
2021/07/12 04:50:12;;;;;;;4.60;4.03;;;;;;;;;;5114343;28;20865;-76
2021/07/12 04:52:39;;;;;;;4.20;3.80;;;;;;;;;;5110948;28;20443;-75
2021/07/12 04:55:07;;;;;;;5.00;3.20;;;;;;;;;;5114110;28;20455;-77
2021/07/12 04:57:34;;;;;;;3.77;3.10;;;;;;;;;;5113281;28;20555;-76
2021/07/12 05:00:04;;;;;;;4.67;4.10;;;;;;;;;;5114051;28;20518;-76
2021/07/12 05:02:31;;;;;;;3.90;3.10;;;;;;;;;;5113582;28;20462;-75
2021/07/12 05:04:58;;;;;;;5.20;3.33;;;;;;;;;;5114371;28;20472;-76
2021/07/12 05:07:26;;;;;;;4.23;3.80;;;;;;;;;;5113992;28;21044;-76
2021/07/12 05:09:53;;;;;;;4.23;3.50;;;;;;;;;;5113536;28;20796;-76
2021/07/12 05:12:21;;;;;;;4.80;3.50;;;;;;;;;;5114030;28;20465;-76
2021/07/12 05:14:48;;;;;;;3.80;3.40;;;;;;;;;;5113197;28;21090;-76
2021/07/12 05:17:17;;;;;;;3.60;3.07;;;;;;;;;;5114389;28;20479;-76
2021/07/12 05:19:44;;;;;;;4.67;3.50;;;;;;;;;;5113680;28;20452;-76
2021/07/12 05:22:11;;;;;;;3.27;2.97;;;;;;;;;;5113534;28;20440;-77
2021/07/12 05:24:39;;;;;;;6.57;3.30;;;;;;;;;;5113102;28;20440;-77
2021/07/12 05:27:06;;;;;;;4.17;3.43;;;;;;;;;;5113953;28;20444;-76
2021/07/12 05:29:34;;;;;;;3.67;3.10;;;;;;;;;;5112913;28;20435;-76
2021/07/12 05:32:01;;;;;;;4.40;3.10;;;;;;;;;;5113880;28;20458;-76
2021/07/12 05:34:30;;;;;;;3.30;3.10;;;;;;;;;;5113443;28;20436;-77
2021/07/12 05:36:57;;;;;;;3.47;3.17;;;;;;;;;;5113591;28;20467;-77
2021/07/12 05:39:24;;;;;;;3.47;3.17;;;;;;;;;;5113654;28;20440;-76
2021/07/12 05:41:51;;;;;;;5.03;3.47;;;;;;;;;;5112858;28;20439;-76
2021/07/12 05:44:18;;;;;;;3.17;2.87;;;;;;;;;;5113631;28;20543;-77
2021/07/12 05:46:46;;;;;;;3.30;2.97;;;;;;;;;;5112996;28;20469;-76
2021/07/12 05:49:13;;;;;;;3.57;3.10;;;;;;;;;;5113442;28;20793;-77
2021/07/12 05:51:41;;;;;;;3.50;2.87;;;;;;;;;;5112638;28;20445;-77
2021/07/12 05:54:08;;;;;;;4.13;3.23;;;;;;;;;;5113339;28;20491;-77
2021/07/12 05:56:36;;;;;;;4.03;2.77;;;;;;;;;;5112140;28;20560;-76
2021/07/12 05:59:03;;;;;;;6.40;3.10;;;;;;;;;;5113032;28;20791;-77
2021/07/12 06:01:30;;;;;;;5.37;2.63;;;;;;;;;;5113105;28;20454;-76
2021/07/12 06:03:57;;;;;;;2.43;2.23;;;;;;;;;;5112197;28;20562;-77
2021/07/12 06:06:24;;;;;;;3.40;2.17;;;;;;;;;;5113154;28;20440;-77
2021/07/12 06:08:53;;;;;;;3.20;2.83;;;;;;;;;;5112524;28;20534;-77
2021/07/12 06:11:20;;;;;;;2.80;2.57;;;;;;;;;;5113009;28;20435;-77
2021/07/12 06:13:48;;;;;;;2.30;2.10;;;;;;;;;;5112342;28;20436;-77
2021/07/12 06:16:15;;;;;;;3.27;2.47;;;;;;;;;;5112709;28;20924;-76
2021/07/12 06:18:43;;;;;;;2.60;2.40;;;;;;;;;;5112051;28;20454;-77
2021/07/12 06:21:10;;;;;;;2.70;2.40;;;25.10;61.60;;;;;;5112605;28;21008;-76
2021/07/12 06:23:37;;;;;;;2.60;2.17;;;18.20;99.90;;;;;;5112260;28;20534;-77
2021/07/12 06:26:05;;;;;;;2.57;2.37;;;18.20;99.90;;;;;;5112446;28;20526;-77
2021/07/12 06:28:32;;;;;;;2.17;1.97;;;18.30;98.70;;;;;;5112649;28;20458;-77
2021/07/12 06:30:58;;;;;;;2.43;2.03;;;18.40;5.30;;;;;;5111853;28;21213;-77
2021/07/12 06:33:27;;;;;;;3.33;2.20;;;18.60;77.10;;;;;;5112205;28;20526;-77
2021/07/12 06:35:54;;;;;;;2.50;2.30;;;18.80;1.00;;;;;;5112192;28;20444;-77
2021/07/12 06:38:21;;;;;;;2.20;2.00;;;19.00;1.00;;;;;;5112567;28;20505;-77
2021/07/12 06:40:48;;;;;;;2.80;2.13;;;19.20;99.90;;;;;;5112208;28;20444;-76
2021/07/12 06:43:16;;;;;;;1.60;1.50;;;19.10;99.90;;;;;;5118959;28;20446;-77
2021/07/12 06:45:44;;;;;;;2.33;2.00;;;19.20;99.90;;;;;;5111838;28;20871;-77
2021/07/12 06:48:11;;;;;;;3.73;1.77;;;19.20;99.90;;;;;;5111957;28;20455;-76
2021/07/12 06:50:38;;;;;;;2.67;2.00;;;19.20;1.00;;;;;;5111749;28;20527;-76
2021/07/12 06:53:05;;;;;;;1.73;1.60;;;19.50;1.00;;;;;;5112103;28;20526;-77
2021/07/12 06:55:32;;;;;;;4.50;2.43;;;19.80;99.90;;;;;;5112459;28;20876;-77
2021/07/12 06:58:00;;;;;;;2.37;1.87;;;19.80;99.90;;;;;;5111366;28;20927;-77
2021/07/12 07:00:30;;;;;;;1.77;1.67;;;20.00;99.90;;;;;;5112165;28;20448;-76
2021/07/12 07:02:57;;;;;;;3.00;1.80;;;20.30;1.00;;;;;;5111172;28;20550;-76
2021/07/12 07:05:26;;;;;;;2.47;2.03;;;;;;;;;;5112056;28;20475;-76
2021/07/12 07:07:54;;;;;;;1.90;1.50;;;;;;;;;;5111286;28;20456;-76
2021/07/12 07:10:21;;;;;;;2.70;1.57;;;;;;;;;;5111642;28;20471;-75
2021/07/12 07:12:48;;;;;;;1.70;1.60;;;;;;;;;;5111695;28;20867;-76
2021/07/12 07:15:16;;;;;;;2.43;1.80;;;;;;;;;;5111664;28;20439;-76
2021/07/12 07:17:44;;;;;;;1.97;1.70;;;;;;;;;;5111323;28;20486;-77
2021/07/12 07:20:12;;;;;;;2.60;2.40;;;;;;;;;;5111610;28;20530;-76
2021/07/12 07:22:39;;;;;;;2.00;1.67;;;;;;;;;;5110978;28;20931;-75
2021/07/12 07:25:07;;;;;;;2.00;1.80;;;;;;;;;;5111530;28;20446;-77
2021/07/12 07:27:34;;;;;;;2.03;1.83;;;;;;;;;;5111812;28;20537;-76
2021/07/12 07:30:02;;;;;;;2.47;1.90;;;;;;;;;;5111269;28;20444;-76
2021/07/12 07:32:29;;;;;;;2.20;2.00;;;;;;;;;;5112100;28;20458;-76
2021/07/12 07:34:57;;;;;;;2.07;1.87;;;;;;;;;;5111169;28;20444;-76
2021/07/12 07:37:24;;;;;;;3.27;1.90;;;;;;;;;;5111670;28;20570;-76
2021/07/12 07:39:52;;;;;;;3.20;2.13;;;;;;;;;;5111095;28;20446;-76
2021/07/12 07:42:19;;;;;;;2.90;1.80;;;;;;;;;;5111814;28;20447;-77
2021/07/12 07:44:46;;;;;;;4.53;2.70;;;;;;;;;;5112292;28;20436;-77
2021/07/12 07:47:13;;;;;;;3.03;2.07;;;;;;;;;;5113494;28;20891;-77
2021/07/12 07:49:40;;;;;;;3.77;2.00;;;;;;;;;;5111135;28;20502;-75
2021/07/12 07:52:09;;;;;;;3.47;2.00;;;;;;;;;;5112698;28;20474;-76
2021/07/12 07:54:36;;;;;;;4.30;3.70;;;;;;;;;;5111654;28;20954;-76
2021/07/12 07:57:03;;;;;;;2.90;2.10;;;;;;;;;;5114084;28;20449;-76
2021/07/12 07:59:30;;;;;;;2.40;1.53;;;;;;;;;;5117947;28;20909;-77
2021/07/12 08:01:57;;;;;;;2.30;2.03;;;;;;;;;;5112459;28;20924;-76
2021/07/12 08:04:25;;;;;;;2.00;1.73;;;;;;;;;;5111729;28;20474;-77
2021/07/12 08:06:52;;;;;;;7.90;2.77;;;;;;;;;;5110520;28;20539;-76
2021/07/12 08:09:20;;;;;;;2.13;1.73;;;;;;;;;;5111500;28;20528;-76
2021/07/12 08:11:48;;;;;;;1.90;1.80;;;;;;;;;;5110505;28;20450;-77
2021/07/12 08:14:16;;;;;;;3.40;1.83;;;;;;;;;;5111487;28;20479;-76
2021/07/12 08:16:43;;;;;;;2.80;2.20;;;;;;;;;;5110702;28;20534;-76
2021/07/12 08:19:10;;;;;;;1.80;1.70;;;;;;;;;;5111157;28;20482;-75
2021/07/12 08:21:37;;;;;;;2.40;2.10;;;;;;;;;;5113892;28;20451;-75
2021/07/12 08:24:04;;;;;;;3.50;2.13;;;;;;;;;;5114145;28;20436;-75
2021/07/12 08:26:33;;;;;;;3.00;2.20;;;;;;;;;;5114614;28;20489;-76
2021/07/12 08:29:00;;;;;;;1.80;1.53;;;;;;;;;;5114384;28;20809;-76
2021/07/12 08:31:27;;;;;;;3.60;2.77;;;;;;;;;;5114526;28;20932;-76
2021/07/12 08:33:54;;;;;;;2.20;2.00;;;;;;;;;;5114283;28;20539;-75
2021/07/12 08:36:23;;;;;;;1.83;1.63;;;;;;;;;;5114671;28;21007;-76
2021/07/12 08:38:50;;;;;;;2.03;1.83;;;;;;;;;;5114134;28;20486;-76
2021/07/12 08:41:18;;;;;;;2.27;1.97;;;;;;;;;;5114714;28;20450;-76
2021/07/12 08:43:46;;;;;;;2.10;1.80;;;;;;;;;;5114314;28;20444;-77
2021/07/12 08:46:14;;;;;;;3.40;1.90;;;;;;;;;;5114672;28;20454;-75
2021/07/12 08:48:41;;;;;;;1.53;1.43;;;;;;;;;;5114760;28;20443;-76
2021/07/12 08:51:09;;;;;;;2.00;1.80;;;;;;;;;;5114478;28;20442;-76
2021/07/12 08:53:36;;;;;;;2.43;2.03;;;;;;;;;;5114416;28;20443;-76
2021/07/12 08:56:03;;;;;;;1.93;1.70;;;;;;;;;;5113792;28;20443;-77
2021/07/12 08:58:34;;;;;;;2.03;1.83;;;;;;;;;;5114855;28;20483;-75
2021/07/12 09:01:03;;;;;;;1.70;1.60;;;;;;;;;;5113552;28;20450;-78
2021/07/12 09:03:32;;;;;;;2.27;2.07;;;;;;;;;;5113819;28;20475;-76
2021/07/12 09:06:01;;;;;;;2.20;1.53;;;;;;;;;;5113526;28;20475;-75
2021/07/12 09:08:48;;;;;;;2.30;1.80;;;;;;;;;;5113952;28;20522;-76
2021/07/12 09:11:16;;;;;;;6.30;1.80;;;;;;;;;;5113963;28;20446;-76
2021/07/12 09:13:45;;;;;;;1.73;1.57;;;;;;;;;;5114480;28;20864;-76
2021/07/12 09:16:37;;;;;;;1.37;1.27;;;;;;;;;;5113901;28;20539;-77
2021/07/12 09:19:08;;;;;;;2.13;1.37;;;;;;;;;;5113766;28;20475;-76
2021/07/12 09:21:36;;;;;;;2.93;1.80;;;;;;;;;;5113842;28;20531;-75
2021/07/12 09:24:22;;;;;;;9.40;1.90;;;;;;;;;;5113584;28;20491;-76
2021/07/12 09:26:50;;;;;;;2.90;2.00;;;;;;;;;;5113623;28;20420;-76
2021/07/12 09:29:18;;;;;;;1.90;1.80;;;;;;;;;;5113657;28;20447;-77
2021/07/12 09:31:48;;;;;;;2.23;1.70;;;;;;;;;;5113694;28;20447;-74
2021/07/12 09:34:15;;;;;;;2.17;1.67;;;;;;;;;;5113630;28;20518;-76
2021/07/12 09:36:44;;;;;;;2.30;1.90;;;;;;;;;;5113969;28;20446;-77
2021/07/12 09:39:23;;;;;;;5.03;2.00;;;;;;;;;;5113879;28;20479;-78
2021/07/12 09:41:50;;;;;;;2.73;1.53;;;;;;;;;;5113031;28;20466;-76
2021/07/12 09:44:19;;;;;;;3.03;1.83;;;;;;;;;;5113963;28;20442;-76
2021/07/12 09:46:47;;;;;;;1.50;1.40;;;;;;;;;;5113790;28;20439;-75
2021/07/12 09:49:15;;;;;;;1.87;1.60;;;;;;;;;;5113201;28;20488;-77
2021/07/12 09:51:43;;;;;;;1.63;1.53;;;;;;;;;;5113560;28;20455;-76
2021/07/12 09:54:20;;;;;;;1.73;1.60;;;;;;;;;;5112742;28;20440;-76
2021/07/12 09:56:48;;;;;;;2.20;1.63;;;;;;;;;;5112973;28;20446;-73
2021/07/12 09:59:15;;;;;;;4.53;2.37;;;;;;;;;;5113160;28;20506;-76
2021/07/12 10:01:52;;;;;;;1.60;1.50;;;;;;;;;;5112988;28;20538;-77
2021/07/12 10:04:19;;;;;;;1.53;1.43;;;;;;;;;;5112705;28;20499;-76
2021/07/12 10:06:48;;;;;;;1.80;1.50;;;;;;;;;;5113106;28;20848;-76
2021/07/12 10:09:16;;;;;;;1.70;1.60;;;;;;;;;;5112992;28;20522;-76
2021/07/12 10:11:44;;;;;;;4.30;1.60;;;;;;;;;;5113053;28;20518;-76
2021/07/12 10:14:12;;;;;;;2.07;1.63;;;;;;;;;;5112491;28;20805;-76
2021/07/12 10:16:39;;;;;;;2.20;1.70;;;;;;;;;;5112887;28;20868;-76
2021/07/12 10:19:07;;;;;;;1.60;1.50;;;;;;;;;;5112169;28;20471;-76
2021/07/12 10:21:35;;;;;;;4.07;2.10;;;;;;;;;;5112718;28;20450;-77
2021/07/12 10:24:03;;;;;;;3.30;1.40;;;;;;;;;;5112127;28;20447;-75
2021/07/12 10:26:42;;;;;;;1.80;1.53;;;;;;;;;;5112322;28;20439;-77
2021/07/12 10:29:14;;;;;;;1.90;1.67;;;20.10;1.00;;;;;;5111798;28;20447;-75
2021/07/12 10:31:56;;;;;;;2.33;2.13;;;26.10;99.90;;;;;;5112277;28;20475;-76
2021/07/12 10:34:31;;;;;;;1.80;1.70;;;25.90;99.90;;;;;;5112673;28;20781;-77
2021/07/12 10:37:00;;;;;;;5.13;2.50;;;25.80;99.90;;;;;;5112078;28;20480;-76
2021/07/12 10:40:11;;;;;;;3.27;1.83;;;26.00;99.90;;;;;;5112495;28;20518;-77
2021/07/12 10:42:53;;;;;;;3.60;1.80;;;26.40;99.90;;;;;;5103015;28;20458;-77
2021/07/12 10:45:23;;;;;;;1.70;1.40;;;26.20;99.90;;;;;;5112090;28;20439;-76
2021/07/12 10:47:54;;;;;;;1.70;1.60;;;26.10;99.90;;;;;;5112286;28;20532;-74
2021/07/12 10:50:45;;;;;;;5.17;1.73;;;26.30;99.90;;;;;;5112446;28;20436;-77
2021/07/12 10:53:39;;;;;;;1.87;1.77;;;26.00;99.90;;;;;;5111910;28;20502;-76
2021/07/12 10:56:12;;;;;;;2.50;2.23;;;26.10;99.90;;;;;;5111569;28;20907;-76
2021/07/12 10:58:46;;;;;;;3.10;2.13;;;26.20;99.90;;;;;;5112343;28;20547;-77
2021/07/12 11:01:42;;;;;;;2.50;1.60;;;26.00;99.90;;;;;;5111159;28;20546;-77
2021/07/12 11:04:31;;;;;;;2.43;1.90;;;25.90;99.90;;;;;;5110918;28;20463;-76
2021/07/12 11:07:00;;;;;;;3.53;1.70;;;25.70;99.90;;;;;;5111600;28;20488;-76
2021/07/12 11:09:48;;;;;;;1.87;1.67;;;25.90;99.90;;;;;;5111968;28;20478;-77
2021/07/12 11:12:39;;;;;;;6.13;2.27;;;25.80;99.90;;;;;;5111358;28;20966;-77
2021/07/12 11:15:30;;;;;;;4.90;2.50;;;25.80;99.90;;;;;;5111341;28;20438;-78
2021/07/12 11:18:06;;;;;;;1.73;1.63;;;26.10;99.90;;;;;;5111622;28;20518;-77
2021/07/12 11:20:47;;;;;;;1.73;1.63;;;26.40;99.90;;;;;;5112177;28;20419;-78
2021/07/12 11:23:41;;;;;;;2.17;1.60;;;26.40;99.90;;;;;;5111136;28;20455;-79
2021/07/12 11:26:38;;;;;;;3.60;1.87;;;26.60;99.90;;;;;;5111493;28;20463;-79
2021/07/12 11:29:14;;;;;;;2.20;1.60;;;26.80;99.90;;;;;;5105032;28;20451;-78
2021/07/12 11:31:42;;;;;;;1.60;1.50;;;27.10;99.90;;;;;;5112246;28;20447;-78
2021/07/12 11:34:14;;;;;;;1.83;1.60;;;27.20;99.90;;;;;;5118576;28;20863;-77
2021/07/12 11:36:52;;;;;;;1.60;1.50;;;27.00;99.90;;;;;;5112257;28;20438;-76
2021/07/12 11:39:22;;;;;;;1.57;1.47;;;26.90;99.90;;;;;;5111906;28;20570;-77
2021/07/12 11:41:49;;;;;;;2.43;1.80;;;26.80;99.90;;;;;;5111576;28;20427;-77
2021/07/12 11:44:18;;;;;;;2.10;1.53;;;26.90;99.90;;;;;;5111392;28;20545;-77
2021/07/12 11:46:46;;;;;;;2.27;1.50;;;27.10;99.90;;;;;;5111493;28;20513;-77
2021/07/12 11:49:16;;;;;;;1.73;1.63;;;27.40;99.90;;;;;;5110494;28;20525;-77
2021/07/12 11:51:43;;;;;;;2.13;1.93;;;27.20;99.90;;;;;;5110982;28;20923;-78
2021/07/12 11:54:15;;;;;;;2.13;1.93;;;27.30;99.90;;;;;;5111941;28;20442;-79
2021/07/12 11:56:59;;;;;;;2.00;1.60;;;27.50;99.90;;;;;;5115747;28;20471;-78
2021/07/12 11:59:27;;;;;;;1.83;1.60;;;27.60;99.90;;;;;;5115226;28;20549;-77
2021/07/12 12:02:04;;;;;;;2.70;1.80;;;27.80;99.90;;;;;;5116059;28;20446;-77
2021/07/12 12:04:42;;;;;;;1.80;1.60;;;28.00;99.90;;;;;;5117203;28;20478;-78
2021/07/12 12:07:23;;;;;;;1.70;1.60;;;27.80;99.90;;;;;;5115003;28;20911;-77
2021/07/12 12:09:51;;;;;;;1.67;1.40;;;27.60;99.90;;;;;;5115322;28;20446;-78
2021/07/12 12:12:25;;;;;;;2.90;1.83;;;27.80;99.90;;;;;;5114987;28;20521;-77
2021/07/12 12:15:00;;;;;;;2.10;1.83;;;27.50;99.90;;;;;;5115397;28;20510;-78
2021/07/12 12:17:28;;;;;;;2.27;1.97;;;27.70;99.90;;;;;;5115072;28;20438;-77
2021/07/12 12:20:18;;;;;;;1.60;1.33;;;27.60;99.90;;;;;;5114978;28;20543;-77
2021/07/12 12:23:11;;;;;;;1.60;1.50;;;27.50;99.90;;;;;;5115134;28;20435;-77
2021/07/12 12:25:46;;;;;;;4.20;2.00;;;27.40;99.90;;;;;;5115725;28;20435;-77
2021/07/12 12:28:35;;;;;;;2.40;1.53;;;27.80;99.90;;;;;;5114574;28;20900;-77
2021/07/12 12:31:06;;;;;;;2.83;2.00;;;28.00;99.90;;;;;;5114474;28;20506;-76
2021/07/12 12:33:34;;;;;;;3.30;1.63;;;27.80;99.90;;;;;;5114593;28;20427;-77
2021/07/12 12:36:04;;;;;;;2.20;2.00;;;28.00;99.90;;;;;;5114363;28;20519;-77
2021/07/12 12:38:31;;;;;;;2.40;1.90;;;28.00;99.90;;;;;;5114852;28;20454;-77
2021/07/12 12:41:01;;;;;;;2.00;1.50;;;28.10;99.90;;;;;;5114204;28;20435;-76
2021/07/12 12:43:28;;;;;;;2.30;1.77;;;28.50;96.90;;;;;;5115035;28;20514;-76
2021/07/12 12:46:01;;;;;;;2.20;1.90;;;28.20;96.90;;;;;;5114794;28;20443;-76
2021/07/12 12:48:42;;;;;;;2.40;2.20;;;28.30;99.90;;;;;;5114863;28;20442;-77
2021/07/12 12:51:47;;;;;;;2.90;2.00;;;28.30;99.90;;;;;;5114112;28;20426;-77
2021/07/12 12:54:14;;;;;;;1.47;1.37;;;28.40;99.90;;;;;;5031093;28;20522;-76
2021/07/12 12:56:49;;;;;;;1.90;1.80;;;28.40;99.90;;;;;;5099456;28;20455;-77
2021/07/12 12:59:16;;;;;;;2.13;2.03;;;28.20;99.90;;;;;;5113701;28;20468;-76
2021/07/12 13:01:46;;;;;;;1.60;1.50;;;28.30;98.50;;;;;;5114431;28;20215;-77
2021/07/12 13:04:17;;;;;;;1.83;1.73;;;28.50;98.40;;;;;;5113908;28;20471;-76
2021/07/12 13:06:55;;;;;;;3.67;1.90;;;28.70;97.90;;;;;;5113811;28;20483;-76
2021/07/12 13:09:33;;;;;;;1.50;1.40;;;28.50;96.80;;;;;;5113654;28;20477;-78
2021/07/12 13:12:11;;;;;;;2.27;1.70;;;28.10;96.40;;;;;;5113496;28;20427;-78
2021/07/12 13:14:39;;;;;;;2.83;2.00;;;28.10;99.60;;;;;;5114258;28;20438;-76
2021/07/12 13:17:09;;;;;;;2.40;1.63;;;28.20;99.90;;;;;;5113341;28;20443;-77
2021/07/12 13:19:37;;;;;;;2.03;1.80;;;28.10;97.80;;;;;;5113790;28;20463;-78
2021/07/12 13:22:04;;;;;;;3.13;2.47;;;28.00;99.90;;;;;;5113594;28;20435;-77
2021/07/12 13:24:43;;;;;;;2.03;1.83;;;28.00;99.90;;;;;;5114136;28;20867;-76
2021/07/12 13:27:11;;;;;;;2.10;1.90;;;28.20;99.90;;;;;;5113324;28;20463;-76
2021/07/12 13:29:38;;;;;;;2.03;1.60;;;28.20;99.90;;;;;;5113553;28;20284;-76
2021/07/12 13:32:06;;;;;;;2.47;1.80;;;28.10;99.90;;;;;;5112859;28;20189;-77
2021/07/12 13:34:34;;;;;;;2.33;2.13;;;28.30;99.90;;;;;;5113659;28;20200;-76
2021/07/12 13:37:01;;;;;;;2.03;1.93;;;28.40;99.90;;;;;;5113095;28;20685;-76
2021/07/12 13:39:28;;;;;;;3.40;2.07;;;28.60;99.90;;;;;;5113194;28;20216;-77
2021/07/12 13:41:55;;;;;;;2.40;2.20;;;28.30;99.90;;;;;;5113843;28;20200;-76
2021/07/12 13:44:22;;;;;;;2.03;1.83;;;28.50;99.90;;;;;;5113283;28;20563;-77
2021/07/12 13:46:49;;;;;;;3.28;1.80;;;28.90;99.90;;;;;;5113571;28;20591;-77
2021/07/12 13:49:15;;;;;;;2.85;2.03;;;28.90;97.10;;;;;;5113190;28;20582;-77
2021/07/12 13:51:44;;;;;;;2.20;2.00;;;29.10;99.90;;;;;;5113736;28;20225;-76
2021/07/12 13:54:11;;;;;;;3.90;2.22;;;29.00;99.90;;;;;;5112804;28;20632;-76
2021/07/12 13:56:37;;;;;;;2.30;2.10;;;28.70;96.80;;;;;;5113600;28;20556;-77
2021/07/12 13:59:04;;;;;;;2.50;2.30;;;28.40;98.50;;;;;;5112790;28;20221;-76
2021/07/12 14:01:31;;;;;;;2.72;2.53;;;28.20;99.90;;;;;;5113326;28;20644;-75
2021/07/12 14:03:58;;;;;;;3.10;2.90;;;28.50;99.90;;;;;;5112792;28;20229;-76
2021/07/12 14:06:25;;;;;;;2.75;2.35;;;29.30;95.60;;;;;;5112637;28;20225;-76
2021/07/12 14:08:54;;;;;;;2.40;2.20;;;29.50;92.10;;;;;;5112983;28;20749;-77
2021/07/12 14:11:21;;;;;;;3.05;2.10;;;29.00;92.90;;;;;;5113049;28;20197;-76
2021/07/12 14:13:48;;;;;;;2.67;2.20;;;28.90;93.80;;;;;;5113113;28;20197;-77
2021/07/12 14:16:16;;;;;;;2.50;2.30;;;29.00;95.00;;;;;;5112390;28;20203;-77
2021/07/12 14:18:43;;;;;;;2.30;2.10;;;29.00;96.30;;;;;;5112189;28;20200;-76
2021/07/12 14:21:14;;;;;;;3.42;2.60;;;29.20;93.20;;;;;;5112481;28;20316;-77